Time;durP1;ratioP1;P1;durP2;ratioP2;P2;SDS_P1;SDS_P2;PMS_P1;PMS_P2;Temp;Humidity;BMP_temperature;BMP_pressure;BME280_temperature;BME280_humidity;BME280_pressure;Samples;Min_cycle;Max_cycle;Signal;HPM_P1;HPM_P2
2024/03/12 00:03:35;;;;;;;4.90;4.10;;;7.70;99.90;;;;;;12481043;28;20525;-80
2024/03/12 00:09:37;;;;;;;4.88;3.97;;;7.70;99.90;;;;;;12470941;28;20061;-80
2024/03/12 00:15:41;;;;;;;5.57;3.70;;;7.80;99.90;;;;;;12488010;28;20060;-80
2024/03/12 00:21:43;;;;;;;6.77;4.20;;;7.80;99.90;;;;;;12489894;28;20296;-82
2024/03/12 00:27:46;;;;;;;5.85;4.35;;;7.80;99.90;;;;;;12479481;28;20183;-81
2024/03/12 00:33:48;;;;;;;5.65;4.00;;;7.90;99.90;;;;;;12486901;28;20076;-81
2024/03/12 00:39:50;;;;;;;6.97;4.50;;;7.90;99.90;;;;;;12457928;28;20053;-81
2024/03/12 00:45:53;;;;;;;6.78;4.03;;;8.00;99.90;;;;;;12495436;28;20046;-78
2024/03/12 00:51:56;;;;;;;5.50;4.63;;;8.00;99.90;;;;;;12504773;28;20053;-78
2024/03/12 00:57:58;;;;;;;5.20;4.40;;;8.00;99.90;;;;;;12511291;28;20071;-79
2024/03/12 01:04:03;;;;;;;8.20;4.40;;;8.00;99.90;;;;;;12492964;28;20131;-78
2024/03/12 01:10:06;;;;;;;8.25;5.05;;;8.00;99.90;;;;;;12495972;28;20417;-78
2024/03/12 01:16:08;;;;;;;8.70;4.97;;;8.00;99.90;;;;;;12472470;28;20059;-78
2024/03/12 01:22:10;;;;;;;6.93;4.95;;;8.00;99.90;;;;;;12502297;28;20406;-79
2024/03/12 01:28:12;;;;;;;6.63;5.20;;;8.00;99.90;;;;;;12491990;28;20046;-78
2024/03/12 01:34:15;;;;;;;5.95;4.53;;;8.00;99.90;;;;;;12520929;28;20088;-80
2024/03/12 01:40:22;;;;;;;5.93;5.32;;;7.90;99.90;;;;;;12498533;28;20056;-79
2024/03/12 01:46:28;;;;;;;5.75;5.15;;;7.90;99.90;;;;;;12479717;28;20472;-80
2024/03/12 01:52:30;;;;;;;6.80;5.47;;;7.90;99.90;;;;;;12501968;28;20069;-80
2024/03/12 01:58:32;;;;;;;7.78;5.20;;;7.90;99.90;;;;;;12493599;28;20486;-80
2024/03/12 02:04:35;;;;;;;7.18;5.30;;;7.80;99.90;;;;;;12491697;28;20080;-80
2024/03/12 02:10:37;;;;;;;6.80;5.28;;;7.90;99.90;;;;;;12502214;28;20375;-80
2024/03/12 02:16:39;;;;;;;7.13;5.25;;;7.80;99.90;;;;;;12477200;28;20057;-80
2024/03/12 02:22:41;;;;;;;6.82;5.50;;;7.80;99.90;;;;;;12441761;28;20515;-80
2024/03/12 02:28:43;;;;;;;7.53;5.80;;;7.90;99.90;;;;;;12443905;28;20050;-80
2024/03/12 02:34:45;;;;;;;6.78;5.43;;;7.80;99.90;;;;;;12452999;28;20107;-80
2024/03/12 02:40:47;;;;;;;6.93;5.80;;;7.80;99.90;;;;;;12441195;28;20403;-80
2024/03/12 02:46:51;;;;;;;7.15;5.35;;;7.80;99.90;;;;;;12430593;28;20495;-80
2024/03/12 02:52:55;;;;;;;8.70;6.00;;;7.90;99.90;;;;;;12443520;28;20081;-82
2024/03/12 02:58:57;;;;;;;9.18;6.50;;;7.80;99.90;;;;;;12435155;28;20046;-82
2024/03/12 03:04:59;;;;;;;7.13;6.00;;;7.80;99.90;;;;;;12439409;28;20081;-81
2024/03/12 03:11:01;;;;;;;6.93;6.13;;;7.80;99.90;;;;;;12433897;28;20149;-82
2024/03/12 03:17:03;;;;;;;7.90;5.75;;;7.70;99.90;;;;;;12453580;28;20056;-82
2024/03/12 03:23:05;;;;;;;6.93;6.22;;;7.70;99.90;;;;;;12475098;28;20080;-81
2024/03/12 03:29:07;;;;;;;7.72;6.07;;;7.50;99.90;;;;;;12467742;28;20498;-82
2024/03/12 03:35:10;;;;;;;9.95;6.65;;;7.60;99.90;;;;;;12471675;28;20494;-82
2024/03/12 03:41:12;;;;;;;7.57;6.13;;;7.60;99.90;;;;;;12491082;28;20056;-81
2024/03/12 03:47:14;;;;;;;9.90;7.07;;;7.50;99.90;;;;;;12484147;28;20056;-81
2024/03/12 03:53:16;;;;;;;14.25;8.20;;;7.60;99.90;;;;;;12496775;28;20057;-82
2024/03/12 03:59:19;;;;;;;11.35;8.15;;;7.70;99.90;;;;;;12470682;28;20060;-82
2024/03/12 04:05:21;;;;;;;12.50;8.40;;;7.70;99.90;;;;;;12465283;28;20042;-79
2024/03/12 04:11:23;;;;;;;12.32;8.25;;;7.80;99.90;;;;;;12501027;28;20060;-78
2024/03/12 04:17:26;;;;;;;15.20;9.15;;;7.80;99.90;;;;;;12500453;28;20052;-78
2024/03/12 04:23:28;;;;;;;19.50;12.80;;;7.80;99.90;;;;;;12497718;28;20099;-79
2024/03/12 04:29:30;;;;;;;24.23;13.52;;;7.80;99.90;;;;;;12484712;28;20099;-78
2024/03/12 04:35:32;;;;;;;32.50;16.75;;;7.80;99.90;;;;;;12497395;28;20108;-78
2024/03/12 04:41:34;;;;;;;35.33;18.45;;;7.80;99.90;;;;;;12477613;28;20041;-79
2024/03/12 04:47:37;;;;;;;36.20;19.52;;;7.80;99.90;;;;;;12494713;28;20056;-79
2024/03/12 04:53:39;;;;;;;34.92;20.13;;;7.70;99.90;;;;;;12485504;28;20196;-81
2024/03/12 04:59:41;;;;;;;36.03;20.25;;;7.70;99.90;;;;;;12486999;28;20049;-82
2024/03/12 05:05:43;;;;;;;39.00;21.13;;;7.70;99.90;;;;;;12500010;28;20084;-81
2024/03/12 05:11:46;;;;;;;37.08;20.95;;;7.70;99.90;;;;;;12477806;28;20186;-82
2024/03/12 05:17:52;;;;;;;39.70;21.85;;;7.70;99.90;;;;;;12491105;28;20417;-81
2024/03/12 05:23:54;;;;;;;38.78;22.58;;;7.70;99.90;;;;;;12475472;28;20053;-82
2024/03/12 05:29:56;;;;;;;40.88;23.17;;;7.70;99.90;;;;;;12464742;28;20080;-82
2024/03/12 05:36:08;;;;;;;45.15;24.02;;;7.70;99.90;;;;;;12467879;28;20529;-82
2024/03/12 05:48:31;;;;;;;48.30;23.70;;;7.70;99.90;;;;;;12479551;28;20045;-82
2024/03/12 05:54:33;;;;;;;42.72;22.42;;;7.70;99.90;;;;;;12470622;28;20053;-83
2024/03/12 06:00:36;;;;;;;39.78;21.60;;;7.70;99.90;;;;;;12462392;28;20493;-83
2024/03/12 06:06:38;;;;;;;42.15;21.17;;;7.70;99.90;;;;;;12457971;28;20053;-79
2024/03/12 06:12:41;;;;;;;36.63;20.38;;;7.70;99.90;;;;;;12497265;28;20096;-79
2024/03/12 06:18:44;;;;;;;33.88;18.48;;;7.70;99.90;;;;;;12472981;28;20060;-79
2024/03/12 06:24:47;;;;;;;33.70;17.67;;;7.70;99.90;;;;;;12494432;28;20568;-81
2024/03/12 06:30:50;;;;;;;29.02;17.05;;;7.70;99.90;;;;;;12491578;28;20445;-82
2024/03/12 06:36:57;;;;;;;33.30;18.25;;;7.70;99.90;;;;;;12498894;28;20071;-81
2024/03/12 06:42:59;;;;;;;31.27;17.50;;;7.70;99.90;;;;;;12465850;28;20045;-81
2024/03/12 06:49:01;;;;;;;30.17;18.35;;;7.70;99.90;;;;;;12469251;28;20657;-81
2024/03/12 06:55:12;;;;;;;31.42;17.88;;;7.60;99.90;;;;;;12471610;28;20497;-81
2024/03/12 07:01:19;;;;;;;33.88;17.90;;;7.60;99.90;;;;;;12485325;28;20057;-82
2024/03/12 07:07:21;;;;;;;30.30;17.50;;;7.60;99.90;;;;;;12482056;28;20084;-82
2024/03/12 07:13:26;;;;;;;29.35;17.55;;;7.60;99.90;;;;;;12487827;28;20049;-82
2024/03/12 07:19:28;;;;;;;28.77;17.58;;;7.60;99.90;;;;;;12483808;28;20065;-79
2024/03/12 07:25:32;;;;;;;32.33;17.73;;;7.80;99.90;;;;;;12479943;28;20053;-79
2024/03/12 07:31:34;;;;;;;32.75;19.45;;;7.90;99.90;;;;;;12480905;28;20409;-79
2024/03/12 07:37:39;;;;;;;33.90;19.95;;;7.90;99.90;;;;;;12486279;28;20042;-81
2024/03/12 07:43:41;;;;;;;38.95;21.50;;;8.00;99.90;;;;;;12485687;28;20045;-81
2024/03/12 07:49:43;;;;;;;36.38;22.17;;;8.20;99.90;;;;;;12494656;28;20045;-82
2024/03/12 07:55:45;;;;;;;32.38;19.85;;;8.20;99.90;;;;;;12500007;28;20398;-80
2024/03/12 08:01:52;;;;;;;30.98;19.88;;;8.60;99.90;;;;;;12494748;28;20080;-81
2024/03/12 08:07:55;;;;;;;36.05;21.55;;;8.70;99.90;;;;;;12488730;28;20045;-81
2024/03/12 08:13:57;;;;;;;34.63;21.38;;;8.50;99.90;;;;;;12492520;28;20052;-81
2024/03/12 08:19:58;;;;;;;35.05;20.83;;;8.40;99.90;;;;;;12502470;28;20060;-81
2024/03/12 08:26:03;;;;;;;36.00;22.00;;;8.20;99.90;;;;;;12508828;28;20041;-82
2024/03/12 08:32:05;;;;;;;36.55;21.83;;;8.20;99.90;;;;;;12498250;28;20549;-81
2024/03/12 08:38:09;;;;;;;37.15;21.08;;;8.30;99.90;;;;;;12486652;28;20045;-82
2024/03/12 08:44:13;;;;;;;35.72;20.92;;;8.50;99.90;;;;;;12463795;28;20041;-83
2024/03/12 08:50:17;;;;;;;37.55;20.85;;;8.40;99.90;;;;;;12496935;28;20049;-80
2024/03/12 08:56:21;;;;;;;35.17;20.23;;;8.40;99.90;;;;;;12492824;28;20798;-81
2024/03/12 09:02:23;;;;;;;32.30;18.73;;;8.20;99.90;;;;;;12490163;28;20053;-83
2024/03/12 09:08:25;;;;;;;32.72;19.23;;;8.30;99.90;;;;;;12480345;28;20045;-81
2024/03/12 09:14:27;;;;;;;28.13;17.90;;;8.40;99.90;;;;;;12511413;28;20057;-81
2024/03/12 09:20:29;;;;;;;31.65;17.48;;;8.40;99.90;;;;;;12518793;28;20059;-81
2024/03/12 09:26:32;;;;;;;31.73;17.33;;;8.70;99.90;;;;;;12510518;28;20049;-81
2024/03/12 09:32:34;;;;;;;26.30;16.10;;;8.80;99.90;;;;;;12513217;28;20049;-81
2024/03/12 09:38:35;;;;;;;23.85;15.93;;;8.80;99.90;;;;;;12504279;28;20073;-81
2024/03/12 09:44:37;;;;;;;24.80;16.55;;;8.70;99.90;;;;;;12509423;28;20086;-81
2024/03/12 09:50:41;;;;;;;22.52;14.65;;;8.50;99.90;;;;;;12484194;28;20134;-81
2024/03/12 09:56:45;;;;;;;25.48;15.73;;;8.40;99.90;;;;;;12467521;28;20056;-79
2024/03/12 10:02:49;;;;;;;20.80;13.85;;;8.40;99.90;;;;;;12475029;28;20080;-79
2024/03/12 10:08:57;;;;;;;21.45;13.27;;;8.50;99.90;;;;;;12495115;28;20049;-79
2024/03/12 10:15:00;;;;;;;19.67;13.98;;;8.60;99.90;;;;;;12484830;28;20478;-79
2024/03/12 10:21:02;;;;;;;16.58;13.75;;;8.60;99.90;;;;;;12480003;28;20507;-79
2024/03/12 10:27:05;;;;;;;19.48;13.75;;;8.70;99.90;;;;;;12491647;28;20515;-81
2024/03/12 10:33:17;;;;;;;16.60;12.55;;;8.60;99.90;;;;;;12489015;28;20528;-79
2024/03/12 10:39:29;;;;;;;15.07;12.25;;;8.60;99.90;;;;;;12477717;28;20080;-81
2024/03/12 10:45:31;;;;;;;14.95;12.23;;;8.50;99.90;;;;;;12490690;28;20069;-80
2024/03/12 10:51:33;;;;;;;13.27;11.88;;;8.30;99.90;;;;;;12498006;28;20041;-78
2024/03/12 10:57:37;;;;;;;12.50;10.35;;;8.30;99.90;;;;;;12494527;28;20524;-79
2024/03/12 11:03:39;;;;;;;14.73;12.80;;;8.40;99.90;;;;;;12489550;28;20049;-79
2024/03/12 11:09:42;;;;;;;11.73;10.32;;;8.40;99.90;;;;;;12515475;28;20422;-82
2024/03/12 11:15:45;;;;;;;13.20;11.77;;;8.40;99.90;;;;;;12475943;28;20461;-83
2024/03/12 11:21:49;;;;;;;13.77;11.48;;;8.30;99.90;;;;;;12408708;28;20101;-82
2024/03/12 11:28:20;;;;;;;12.65;10.63;;;8.30;99.90;;;;;;12386157;28;20046;-82
2024/03/12 11:34:34;;;;;;;14.30;11.30;;;8.30;99.90;;;;;;12383037;28;20073;-82
2024/03/12 11:40:41;;;;;;;12.38;10.35;;;8.30;99.90;;;;;;12392564;28;20100;-82
2024/03/12 11:46:44;;;;;;;13.02;11.48;;;8.30;99.90;;;;;;12389778;28;20042;-82
2024/03/12 11:52:46;;;;;;;12.20;10.50;;;8.00;99.90;;;;;;12390442;28;20054;-82
2024/03/12 11:58:51;;;;;;;16.98;13.13;;;8.10;99.90;;;;;;12386704;28;20141;-82
2024/03/12 12:04:57;;;;;;;15.57;12.20;;;8.00;99.90;;;;;;12392160;28;20061;-82
2024/03/12 12:11:00;;;;;;;14.00;10.48;;;8.10;99.90;;;;;;12375562;28;20123;-83
2024/03/12 12:17:02;;;;;;;15.73;9.80;;;8.10;99.90;;;;;;12386292;28;20136;-82
2024/03/12 12:23:07;;;;;;;17.52;11.00;;;8.20;99.90;;;;;;12508138;28;20056;-79
2024/03/12 12:29:09;;;;;;;15.73;12.85;;;8.40;99.90;;;;;;12471794;28;20406;-80
2024/03/12 12:35:13;;;;;;;18.48;12.23;;;8.40;99.90;;;;;;12490640;28;20549;-79
2024/03/12 12:41:21;;;;;;;;;;;8.20;99.90;;;;;;12472335;28;20060;-79
2024/03/12 12:47:23;;;;;;;14.85;11.25;;;8.10;99.90;;;;;;12483304;28;19928;-80
2024/03/12 12:53:26;;;;;;;19.70;12.40;;;8.00;99.90;;;;;;12497899;28;20054;-80
2024/03/12 12:59:34;;;;;;;21.35;12.32;;;7.90;99.90;;;;;;12466276;28;20537;-78
2024/03/12 13:05:39;;;;;;;20.38;11.63;;;7.90;99.90;;;;;;12471566;28;20049;-80
2024/03/12 13:11:41;;;;;;;17.58;11.27;;;7.90;99.90;;;;;;12478405;28;20045;-79
2024/03/12 13:17:42;;;;;;;19.77;12.35;;;8.00;99.90;;;;;;12494217;28;20509;-79
2024/03/12 13:23:45;;;;;;;17.40;10.80;;;8.00;99.90;;;;;;12499147;28;20052;-80
2024/03/12 13:29:47;;;;;;;18.17;11.20;;;8.00;99.90;;;;;;12485199;28;20080;-83
2024/03/12 13:35:50;;;;;;;18.35;10.73;;;8.00;99.90;;;;;;12470069;28;20069;-83
2024/03/12 13:41:54;;;;;;;13.57;9.27;;;7.90;99.90;;;;;;12478871;28;20049;-83
2024/03/12 13:47:57;;;;;;;12.02;8.75;;;7.80;99.90;;;;;;12513453;28;20079;-81
2024/03/12 13:53:59;;;;;;;12.20;9.43;;;7.70;99.90;;;;;;12527300;28;20041;-83
2024/03/12 14:00:01;;;;;;;11.32;9.00;;;7.60;99.90;;;;;;12505964;28;20065;-82
2024/03/12 14:06:03;;;;;;;10.80;8.95;;;7.70;99.90;;;;;;12501346;28;20048;-82
2024/03/12 14:12:05;;;;;;;11.27;10.05;;;7.70;99.90;;;;;;12537818;28;20071;-82
2024/03/12 14:18:07;;;;;;;14.07;11.82;;;7.70;99.90;;;;;;12503413;28;20060;-82
2024/03/12 14:24:10;;;;;;;15.73;10.07;;;7.70;99.90;;;;;;12506868;28;20422;-82
2024/03/12 14:30:13;;;;;;;17.42;11.63;;;7.60;99.90;;;;;;12490089;28;20045;-83
2024/03/12 14:36:16;;;;;;;19.80;12.27;;;7.50;99.90;;;;;;12485284;28;20053;-83
2024/03/12 14:42:20;;;;;;;19.20;12.48;;;7.50;99.90;;;;;;12483589;28;20525;-80
2024/03/12 14:48:22;;;;;;;17.33;12.00;;;7.50;99.90;;;;;;12500539;28;20505;-80
2024/03/12 14:54:24;;;;;;;16.52;12.00;;;7.50;99.90;;;;;;12486710;28;20490;-79
2024/03/12 15:00:28;;;;;;;18.13;10.73;;;7.40;99.90;;;;;;12480188;28;20076;-80
2024/03/12 15:06:30;;;;;;;19.63;11.95;;;7.40;99.90;;;;;;12499521;28;20053;-80
2024/03/12 15:12:32;;;;;;;21.45;11.27;;;7.50;99.90;;;;;;12501662;28;20065;-80
2024/03/12 15:18:34;;;;;;;17.70;10.60;;;7.60;99.90;;;;;;12482791;28;20537;-79
2024/03/12 15:24:37;;;;;;;19.40;12.25;;;7.60;99.90;;;;;;12504382;28;20045;-80
2024/03/12 15:30:41;;;;;;;20.47;12.37;;;7.70;99.90;;;;;;12498093;28;20454;-79
2024/03/12 15:36:47;;;;;;;21.00;12.93;;;7.60;99.90;;;;;;12482670;28;20349;-79
2024/03/12 15:42:49;;;;;;;;;;;7.60;99.90;;;;;;12478041;28;20929;-79
2024/03/12 15:48:51;;;;;;;20.42;12.30;;;7.60;99.90;;;;;;12469892;28;19940;-80
2024/03/12 15:54:52;;;;;;;18.50;12.13;;;7.70;99.90;;;;;;12481678;28;20047;-81
2024/03/12 16:00:54;;;;;;;19.50;13.27;;;7.80;99.90;;;;;;12468530;28;20045;-82
2024/03/12 16:06:56;;;;;;;19.25;12.90;;;7.80;99.90;;;;;;12490906;28;20037;-82
2024/03/12 16:12:59;;;;;;;20.58;13.18;;;7.80;99.90;;;;;;12474698;28;20057;-81
2024/03/12 16:19:01;;;;;;;22.30;14.15;;;7.90;99.90;;;;;;12520182;28;20057;-80
2024/03/12 16:25:03;;;;;;;21.25;14.82;;;7.80;99.90;;;;;;12500851;28;20474;-81
2024/03/12 16:31:05;;;;;;;22.15;14.93;;;7.80;99.90;;;;;;12498547;28;20048;-81
2024/03/12 16:37:08;;;;;;;25.60;15.25;;;7.70;99.90;;;;;;12484633;28;20106;-81
2024/03/12 16:43:10;;;;;;;27.53;17.37;;;7.70;99.90;;;;;;12505408;28;20049;-80
2024/03/12 16:49:13;;;;;;;26.90;16.27;;;7.60;99.90;;;;;;12487719;28;20056;-80
2024/03/12 16:55:18;;;;;;;28.33;17.73;;;7.60;99.90;;;;;;12497937;28;20514;-80
2024/03/12 17:01:21;;;;;;;27.63;16.60;;;7.60;99.90;;;;;;12486955;28;20144;-78
2024/03/12 17:07:24;;;;;;;27.10;16.35;;;7.50;99.90;;;;;;12492447;28;20053;-79
2024/03/12 17:13:26;;;;;;;28.40;17.00;;;7.50;99.90;;;;;;12500100;28;20085;-80
2024/03/12 17:19:32;;;;;;;24.70;16.50;;;7.40;99.90;;;;;;12490260;28;20116;-80
2024/03/12 17:25:34;;;;;;;27.23;17.58;;;7.40;99.90;;;;;;12492578;28;20172;-80
2024/03/12 17:31:36;;;;;;;28.63;18.33;;;7.40;99.90;;;;;;12503657;28;20046;-80
2024/03/12 17:37:42;;;;;;;26.17;17.67;;;7.40;99.90;;;;;;12489742;28;20058;-80
2024/03/12 17:43:45;;;;;;;26.65;17.13;;;7.30;99.90;;;;;;12491481;28;20121;-80
2024/03/12 17:49:49;;;;;;;32.90;19.15;;;7.30;99.90;;;;;;12465293;28;20656;-79
2024/03/12 17:55:51;;;;;;;29.10;16.73;;;7.30;99.90;;;;;;12473956;28;20081;-80
2024/03/12 18:01:54;;;;;;;28.33;17.20;;;7.30;99.90;;;;;;12493723;28;20131;-80
2024/03/12 18:08:01;;;;;;;29.85;17.35;;;7.10;99.90;;;;;;12491882;28;20042;-80
2024/03/12 18:14:04;;;;;;;32.67;18.17;;;7.10;99.90;;;;;;12489833;28;20057;-80
2024/03/12 18:20:12;;;;;;;34.53;18.25;;;7.10;99.90;;;;;;12477932;28;20199;-80
2024/03/12 18:26:17;;;;;;;31.55;17.10;;;7.00;99.90;;;;;;12466178;28;20042;-80
2024/03/12 18:32:19;;;;;;;29.80;17.85;;;6.80;99.90;;;;;;12470932;28;20056;-81
2024/03/12 18:38:21;;;;;;;31.88;17.75;;;6.60;99.90;;;;;;12455177;28;20140;-80
2024/03/12 18:44:23;;;;;;;33.15;17.70;;;6.40;99.90;;;;;;12461555;28;20072;-81
2024/03/12 18:50:27;;;;;;;33.97;18.10;;;6.30;99.90;;;;;;12483136;28;20083;-80
2024/03/12 18:56:29;;;;;;;31.25;17.75;;;6.20;99.90;;;;;;12459593;28;20490;-81
2024/03/12 19:02:33;;;;;;;34.38;17.63;;;6.10;99.90;;;;;;12457170;28;20061;-81
2024/03/12 19:08:35;;;;;;;31.85;17.35;;;6.10;99.90;;;;;;12445232;28;21015;-81
2024/03/12 19:14:38;;;;;;;32.38;17.77;;;6.10;99.90;;;;;;12476080;28;20060;-80
2024/03/12 19:20:40;;;;;;;30.90;17.17;;;6.10;99.90;;;;;;12482631;28;20068;-80
2024/03/12 19:26:43;;;;;;;28.40;16.25;;;6.00;99.90;;;;;;12500071;28;20113;-80
2024/03/12 19:32:50;;;;;;;31.83;16.73;;;5.90;99.90;;;;;;12498283;28;20042;-79
2024/03/12 19:38:54;;;;;;;30.88;15.55;;;5.80;99.90;;;;;;12491550;28;20210;-79
2024/03/12 19:44:57;;;;;;;32.75;16.00;;;5.70;99.90;;;;;;12536037;28;20033;-80
2024/03/12 19:50:59;;;;;;;31.55;15.57;;;5.70;99.90;;;;;;12538361;28;20045;-80
2024/03/12 19:57:03;;;;;;;35.10;16.10;;;5.70;99.90;;;;;;12520576;28;20053;-80
2024/03/12 20:03:06;;;;;;;35.08;17.10;;;5.60;99.90;;;;;;12517156;28;20053;-80
2024/03/12 20:09:22;;;;;;;37.65;17.33;;;5.60;99.90;;;;;;12517283;28;20049;-80
2024/03/12 20:15:24;;;;;;;32.17;17.13;;;5.50;99.90;;;;;;12501931;28;20146;-80
2024/03/12 20:21:28;;;;;;;39.15;17.08;;;5.50;99.90;;;;;;12498833;28;20073;-80
2024/03/12 20:27:29;;;;;;;34.60;17.48;;;5.50;99.90;;;;;;12530205;28;20049;-80
2024/03/12 20:33:32;;;;;;;34.38;18.33;;;5.40;99.90;;;;;;12503918;28;20056;-81
2024/03/12 20:39:42;;;;;;;37.45;19.20;;;5.40;99.90;;;;;;12476354;28;20049;-80
2024/03/12 20:45:46;;;;;;;37.83;18.35;;;5.40;99.90;;;;;;12477574;28;20068;-80
2024/03/12 20:51:49;;;;;;;34.63;17.38;;;5.50;99.90;;;;;;12492462;28;20260;-81
2024/03/12 20:57:51;;;;;;;40.75;18.48;;;5.60;99.90;;;;;;12492235;28;21166;-81
2024/03/12 21:03:54;;;;;;;38.42;17.98;;;5.70;99.90;;;;;;12473270;28;20046;-81
2024/03/12 21:09:57;;;;;;;35.92;19.00;;;5.80;99.90;;;;;;12486363;28;20053;-81
2024/03/12 21:15:59;;;;;;;40.53;19.17;;;6.00;99.90;;;;;;12470748;28;20053;-81
2024/03/12 21:22:01;;;;;;;33.63;17.42;;;6.10;99.90;;;;;;12497773;28;20060;-82
2024/03/12 21:28:05;;;;;;;32.58;17.20;;;6.10;99.90;;;;;;12446080;28;20042;-81
2024/03/12 21:34:07;;;;;;;42.03;19.13;;;6.10;99.90;;;;;;12480152;28;20390;-81
2024/03/12 21:40:12;;;;;;;36.63;18.90;;;6.10;99.90;;;;;;12475343;28;20079;-79
2024/03/12 21:46:14;;;;;;;36.05;19.27;;;6.10;99.90;;;;;;12472177;28;20045;-79
2024/03/12 21:52:17;;;;;;;37.38;18.90;;;6.20;99.90;;;;;;12479693;28;20045;-79
2024/03/12 21:58:19;;;;;;;33.75;17.92;;;6.30;99.90;;;;;;12465197;28;20140;-80
2024/03/12 22:04:21;;;;;;;34.92;19.30;;;6.40;99.90;;;;;;12468429;28;20154;-81
2024/03/12 22:10:23;;;;;;;37.72;19.77;;;6.60;99.90;;;;;;12468456;28;20041;-81
2024/03/12 22:16:24;;;;;;;34.97;19.13;;;6.60;99.90;;;;;;12467299;28;20136;-81
2024/03/12 22:22:28;;;;;;;35.00;18.45;;;6.60;99.90;;;;;;12488519;28;20064;-82
2024/03/12 22:28:32;;;;;;;32.58;19.40;;;6.70;99.90;;;;;;12485798;28;20060;-81
2024/03/12 22:34:34;;;;;;;31.73;18.77;;;6.70;99.90;;;;;;12468037;28;20049;-82
2024/03/12 22:40:37;;;;;;;34.65;19.60;;;6.70;99.90;;;;;;12471407;28;20049;-81
2024/03/12 22:46:40;;;;;;;30.67;18.10;;;6.60;99.90;;;;;;12486141;28;20060;-81
2024/03/12 22:52:45;;;;;;;38.30;19.85;;;6.40;99.90;;;;;;12493613;28;20052;-80
2024/03/12 22:58:47;;;;;;;33.22;17.95;;;6.20;99.90;;;;;;12494174;28;20052;-80
2024/03/12 23:04:53;;;;;;;31.83;18.13;;;6.10;99.90;;;;;;12478103;28;20045;-80
2024/03/12 23:10:58;;;;;;;30.15;17.98;;;6.10;99.90;;;;;;12508349;28;20501;-81
2024/03/12 23:17:01;;;;;;;29.65;17.48;;;6.10;99.90;;;;;;12492108;28;20072;-81
2024/03/12 23:23:03;;;;;;;32.95;17.38;;;6.10;99.90;;;;;;12480873;28;20164;-80
2024/03/12 23:29:05;;;;;;;32.97;17.50;;;6.10;99.90;;;;;;12472748;28;20136;-81
2024/03/12 23:35:07;;;;;;;37.50;18.08;;;6.10;99.90;;;;;;12473851;28;20064;-79
2024/03/12 23:41:09;;;;;;;40.47;18.63;;;6.10;99.90;;;;;;12473289;28;20072;-80
2024/03/12 23:47:11;;;;;;;38.38;18.45;;;6.10;99.90;;;;;;12473489;28;20050;-80
2024/03/12 23:53:13;;;;;;;32.90;18.63;;;6.10;99.90;;;;;;12500095;28;20489;-80
2024/03/12 23:59:15;;;;;;;30.00;19.05;;;6.10;99.90;;;;;;12471814;28;20136;-80
